PWSweather.com
Personal Weather Stations
Station Observations
SHAHALMS1
Eftra, Falkenberg, HA

EftraFalkenberg, HA

Lat: 56.85, Lon: 12.65

Elevation: 140

Station Type:

http://hem.passagen.se/risarp101

High Low Average
Temperature 67.3°F19.6°C 58.5°F14.7°C 62.2°F16.8°C
Dew Point 61.2°F16.2°C 56.0°F13.3°C 58.1°F14.5°C
Winds 5.7 mph 9.2 kmh Calm Calm 2.0 mph SW3.2 kmh SW
Wind Gusts 16.8 mph27.0 kmh -- 8.0 mph12.9 kmh
Humidity 93% 76% 87%
Pressure 30.01 in1016.3 mb 29.71 in1006.1 mb -
Precipitation 0.14 in3.6 mm - -
Hour Temp Dew Point Humidity Winds Wind Gusts Pressure Precip Precip Rate Daily Precip Total
12:00 AM 58.8°F14.9°C 56.8°F13.8°C 93% 5.7 mph WNW9.2 kmh WNW 14.0 mph22.5 kmh 29.71 in1006.1 mb 0.00 in0.0 mm 0.00 in0.0 mm 0.00 in0.0 mm
12:15 AM 58.8°F14.9°C 56.5°F13.6°C 92% 4.1 mph W6.6 kmh W 15.4 mph24.8 kmh 29.71 in1006.1 mb 0.00 in0.0 mm 0.00 in0.0 mm 0.00 in0.0 mm
12:30 AM 58.6°F14.8°C 56.3°F13.5°C 92% 4.1 mph W6.6 kmh W 11.1 mph17.9 kmh 29.71 in1006.1 mb 0.00 in0.0 mm 0.00 in0.0 mm 0.00 in0.0 mm
12:45 AM 58.6°F14.8°C 56.3°F13.5°C 92% 4.3 mph WNW6.9 kmh WNW 10.0 mph16.1 kmh 29.71 in1006.1 mb 0.00 in0.0 mm 0.00 in0.0 mm 0.00 in0.0 mm
01:00 AM 58.8°F14.9°C 56.5°F13.6°C 92% 5.0 mph W8.0 kmh W 16.8 mph27.0 kmh 29.71 in1006.1 mb 0.00 in0.0 mm 0.00 in0.0 mm 0.00 in0.0 mm
01:15 AM 58.8°F14.9°C 56.5°F13.6°C 92% 4.3 mph W6.9 kmh W 15.0 mph24.1 kmh 29.71 in1006.1 mb 0.00 in0.0 mm 0.00 in0.0 mm 0.00 in0.0 mm
01:30 AM 58.8°F14.9°C 56.5°F13.6°C 92% 3.6 mph W5.8 kmh W 12.2 mph19.6 kmh 29.71 in1006.1 mb 0.00 in0.0 mm 0.00 in0.0 mm 0.00 in0.0 mm
01:45 AM 58.8°F14.9°C 56.5°F13.6°C 92% 3.0 mph W4.8 kmh W 11.8 mph19.0 kmh 29.71 in1006.1 mb 0.00 in0.0 mm 0.00 in0.0 mm 0.00 in0.0 mm
02:00 AM 58.8°F14.9°C 56.5°F13.6°C 92% 2.4 mph W3.9 kmh W 7.5 mph12.1 kmh 29.74 in1007.1 mb 0.00 in0.0 mm 0.00 in0.0 mm 0.00 in0.0 mm
02:15 AM 58.8°F14.9°C 56.2°F13.4°C 91% 1.9 mph W3.1 kmh W 12.2 mph19.6 kmh 29.74 in1007.1 mb 0.00 in0.0 mm 0.00 in0.0 mm 0.00 in0.0 mm
02:30 AM 58.8°F14.9°C 56.2°F13.4°C 91% 3.7 mph W6.0 kmh W 16.1 mph25.9 kmh 29.74 in1007.1 mb 0.00 in0.0 mm 0.00 in0.0 mm 0.00 in0.0 mm
02:45 AM 58.8°F14.9°C 56.2°F13.4°C 91% 0.8 mph W1.3 kmh W 4.7 mph7.6 kmh 29.74 in1007.1 mb 0.00 in0.0 mm 0.00 in0.0 mm 0.00 in0.0 mm
03:00 AM 58.8°F14.9°C 56.2°F13.4°C 91% 4.0 mph WSW6.4 kmh WSW 9.7 mph15.6 kmh 29.71 in1006.1 mb 0.00 in0.0 mm 0.00 in0.0 mm 0.00 in0.0 mm
03:15 AM 58.6°F14.8°C 56.0°F13.3°C 91% 2.1 mph WSW3.4 kmh WSW 9.3 mph15.0 kmh 29.74 in1007.1 mb 0.05 in1.3 mm 0.20 in5.1 mm 0.05 in1.3 mm
03:30 AM 58.6°F14.8°C 56.0°F13.3°C 91% 3.8 mph W6.1 kmh W 10.0 mph16.1 kmh 29.74 in1007.1 mb 0.05 in1.3 mm 0.00 in0.0 mm 0.05 in1.3 mm
03:45 AM 58.6°F14.8°C 56.3°F13.5°C 92% 3.5 mph W5.6 kmh W 7.9 mph12.7 kmh 29.74 in1007.1 mb 0.05 in1.3 mm 0.00 in0.0 mm 0.05 in1.3 mm
04:00 AM 58.6°F14.8°C 56.3°F13.5°C 92% 3.1 mph W5.0 kmh W 7.9 mph12.7 kmh 29.74 in1007.1 mb 0.05 in1.3 mm 0.00 in0.0 mm 0.05 in1.3 mm
04:15 AM 58.5°F14.7°C 56.1°F13.4°C 92% 2.8 mph W4.5 kmh W 8.9 mph14.3 kmh 29.74 in1007.1 mb 0.00 in0.0 mm 0.00 in0.0 mm 0.05 in1.3 mm
04:30 AM 58.5°F14.7°C 56.1°F13.4°C 92% 3.0 mph W4.8 kmh W 8.9 mph14.3 kmh 29.74 in1007.1 mb 0.00 in0.0 mm 0.00 in0.0 mm 0.05 in1.3 mm
04:45 AM 58.5°F14.7°C 56.1°F13.4°C 92% 3.2 mph WSW5.1 kmh WSW 9.7 mph15.6 kmh 29.77 in1008.1 mb 0.00 in0.0 mm 0.00 in0.0 mm 0.05 in1.3 mm
05:00 AM 58.5°F14.7°C 56.1°F13.4°C 92% 2.3 mph W3.7 kmh W 7.5 mph12.1 kmh 29.77 in1008.1 mb 0.00 in0.0 mm 0.00 in0.0 mm 0.05 in1.3 mm
05:15 AM 58.6°F14.8°C 56.3°F13.5°C 92% 2.6 mph WNW4.2 kmh WNW 8.9 mph14.3 kmh 29.77 in1008.1 mb 0.00 in0.0 mm 0.00 in0.0 mm 0.05 in1.3 mm
05:30 AM 58.5°F14.7°C 56.1°F13.4°C 92% 1.8 mph W2.9 kmh W 5.4 mph8.7 kmh 29.80 in1009.1 mb 0.00 in0.0 mm 0.00 in0.0 mm 0.05 in1.3 mm
05:45 AM 58.6°F14.8°C 56.3°F13.5°C 92% 3.0 mph W4.8 kmh W 12.5 mph20.1 kmh 29.80 in1009.1 mb 0.05 in1.3 mm 0.20 in5.1 mm 0.09 in2.3 mm
06:00 AM 58.6°F14.8°C 56.3°F13.5°C 92% 0.8 mph WNW1.3 kmh WNW 6.4 mph10.3 kmh 29.80 in1009.1 mb 0.05 in1.3 mm 0.00 in0.0 mm 0.09 in2.3 mm
06:15 AM 59.0°F15.0°C 57.0°F13.9°C 93% 2.3 mph W3.7 kmh W 9.3 mph15.0 kmh 29.80 in1009.1 mb 0.05 in1.3 mm 0.00 in0.0 mm 0.09 in2.3 mm
06:30 AM 59.4°F15.2°C 57.3°F14.1°C 93% 1.4 mph W2.3 kmh W 6.1 mph9.8 kmh 29.80 in1009.1 mb 0.05 in1.3 mm 0.00 in0.0 mm 0.09 in2.3 mm
06:45 AM 59.9°F15.5°C 57.9°F14.4°C 93% 2.7 mph W4.3 kmh W 8.9 mph14.3 kmh 29.80 in1009.1 mb 0.00 in0.0 mm 0.00 in0.0 mm 0.09 in2.3 mm
07:00 AM 60.1°F15.6°C 58.0°F14.4°C 93% 2.5 mph W4.0 kmh W 7.9 mph12.7 kmh 29.80 in1009.1 mb 0.00 in0.0 mm 0.00 in0.0 mm 0.09 in2.3 mm
07:15 AM 60.6°F15.9°C 58.6°F14.8°C 93% 2.6 mph W4.2 kmh W 13.6 mph21.9 kmh 29.80 in1009.1 mb 0.00 in0.0 mm 0.00 in0.0 mm 0.09 in2.3 mm
07:30 AM 61.3°F16.3°C 59.3°F15.2°C 93% 1.5 mph W2.4 kmh W 6.4 mph10.3 kmh 29.83 in1010.2 mb 0.00 in0.0 mm 0.00 in0.0 mm 0.09 in2.3 mm
07:45 AM 61.2°F16.2°C 58.8°F14.9°C 92% 2.0 mph W3.2 kmh W 5.4 mph8.7 kmh 29.83 in1010.2 mb 0.05 in1.3 mm 0.20 in5.1 mm 0.14 in3.6 mm
08:00 AM 61.0°F16.1°C 58.6°F14.8°C 92% 3.3 mph W5.3 kmh W 6.8 mph10.9 kmh 29.83 in1010.2 mb 0.05 in1.3 mm 0.00 in0.0 mm 0.14 in3.6 mm
08:15 AM 61.5°F16.4°C 59.2°F15.1°C 92% 3.3 mph WNW5.3 kmh WNW 10.4 mph16.7 kmh 29.83 in1010.2 mb 0.05 in1.3 mm 0.00 in0.0 mm 0.14 in3.6 mm
08:30 AM 62.2°F16.8°C 59.9°F15.5°C 92% 4.2 mph W6.8 kmh W 9.3 mph15.0 kmh 29.83 in1010.2 mb 0.05 in1.3 mm 0.00 in0.0 mm 0.14 in3.6 mm
08:45 AM 61.7°F16.5°C 59.0°F15.0°C 91% 2.6 mph WSW4.2 kmh WSW 9.7 mph15.6 kmh 29.83 in1010.2 mb 0.00 in0.0 mm 0.00 in0.0 mm 0.14 in3.6 mm
09:00 AM 61.9°F16.6°C 59.2°F15.1°C 91% 2.8 mph W4.5 kmh W 10.0 mph16.1 kmh 29.86 in1011.2 mb 0.00 in0.0 mm 0.00 in0.0 mm 0.14 in3.6 mm
09:15 AM 63.0°F17.2°C 60.3°F15.7°C 91% 2.6 mph W4.2 kmh W 12.2 mph19.6 kmh 29.86 in1011.2 mb 0.00 in0.0 mm 0.00 in0.0 mm 0.14 in3.6 mm
09:30 AM 63.0°F17.2°C 60.0°F15.6°C 90% 4.2 mph WNW6.8 kmh WNW 12.2 mph19.6 kmh 29.86 in1011.2 mb 0.00 in0.0 mm 0.00 in0.0 mm 0.14 in3.6 mm
09:45 AM 63.3°F17.4°C 60.3°F15.7°C 90% 3.0 mph W4.8 kmh W 9.7 mph15.6 kmh 29.83 in1010.2 mb 0.00 in0.0 mm 0.00 in0.0 mm 0.14 in3.6 mm
10:00 AM 64.0°F17.8°C 61.0°F16.1°C 90% 2.9 mph W4.7 kmh W 10.0 mph16.1 kmh 29.83 in1010.2 mb 0.00 in0.0 mm 0.00 in0.0 mm 0.14 in3.6 mm
10:15 AM 64.6°F18.1°C 60.9°F16.1°C 88% 3.6 mph WNW5.8 kmh WNW 8.9 mph14.3 kmh 29.86 in1011.2 mb 0.00 in0.0 mm 0.00 in0.0 mm 0.14 in3.6 mm
10:30 AM 64.9°F18.3°C 61.0°F16.1°C 87% 4.3 mph W6.9 kmh W 13.6 mph21.9 kmh 29.86 in1011.2 mb 0.00 in0.0 mm 0.00 in0.0 mm 0.14 in3.6 mm
10:45 AM 65.5°F18.6°C 61.2°F16.2°C 86% 4.5 mph W7.2 kmh W 13.6 mph21.9 kmh 29.86 in1011.2 mb 0.00 in0.0 mm 0.00 in0.0 mm 0.14 in3.6 mm
11:00 AM 65.8°F18.8°C 61.2°F16.2°C 85% 3.7 mph WNW6.0 kmh WNW 9.7 mph15.6 kmh 29.89 in1012.2 mb 0.00 in0.0 mm 0.00 in0.0 mm 0.14 in3.6 mm
11:15 AM 65.8°F18.8°C 60.5°F15.8°C 83% 4.3 mph WNW6.9 kmh WNW 10.0 mph16.1 kmh 29.89 in1012.2 mb 0.00 in0.0 mm 0.00 in0.0 mm 0.14 in3.6 mm
11:30 AM 66.0°F18.9°C 60.7°F15.9°C 83% 3.8 mph W6.1 kmh W 11.8 mph19.0 kmh 29.89 in1012.2 mb 0.00 in0.0 mm 0.00 in0.0 mm 0.14 in3.6 mm
11:45 AM 66.0°F18.9°C 60.4°F15.8°C 82% 2.8 mph WNW4.5 kmh WNW 10.4 mph16.7 kmh 29.92 in1013.2 mb 0.00 in0.0 mm 0.00 in0.0 mm 0.14 in3.6 mm
12:00 PM 66.2°F19.0°C 59.8°F15.4°C 80% 4.1 mph WNW6.6 kmh WNW 8.9 mph14.3 kmh 29.92 in1013.2 mb 0.00 in0.0 mm 0.00 in0.0 mm 0.14 in3.6 mm
12:15 PM 66.2°F19.0°C 59.8°F15.4°C 80% 4.1 mph W6.6 kmh W 12.2 mph19.6 kmh 29.92 in1013.2 mb 0.00 in0.0 mm 0.00 in0.0 mm 0.14 in3.6 mm
12:30 PM 65.7°F18.7°C 59.7°F15.4°C 81% 3.1 mph WNW5.0 kmh WNW 9.3 mph15.0 kmh 29.89 in1012.2 mb 0.00 in0.0 mm 0.00 in0.0 mm 0.14 in3.6 mm
12:45 PM 65.8°F18.8°C 59.5°F15.3°C 80% 5.0 mph W8.0 kmh W 11.8 mph19.0 kmh 29.89 in1012.2 mb 0.00 in0.0 mm 0.00 in0.0 mm 0.14 in3.6 mm
01:00 PM 65.7°F18.7°C 59.0°F15.0°C 79% 5.0 mph W8.0 kmh W 12.5 mph20.1 kmh 29.92 in1013.2 mb 0.00 in0.0 mm 0.00 in0.0 mm 0.14 in3.6 mm
01:15 PM 65.5°F18.6°C 59.1°F15.1°C 80% 3.4 mph W5.5 kmh W 10.0 mph16.1 kmh 29.92 in1013.2 mb 0.00 in0.0 mm 0.00 in0.0 mm 0.14 in3.6 mm
01:30 PM 66.0°F18.9°C 60.0°F15.6°C 81% 2.4 mph W3.9 kmh W 7.9 mph12.7 kmh 29.92 in1013.2 mb 0.00 in0.0 mm 0.00 in0.0 mm 0.14 in3.6 mm
01:45 PM 66.6°F19.2°C 60.2°F15.7°C 80% 3.7 mph W6.0 kmh W 9.7 mph15.6 kmh 29.92 in1013.2 mb 0.00 in0.0 mm 0.00 in0.0 mm 0.14 in3.6 mm
02:00 PM 66.6°F19.2°C 59.5°F15.3°C 78% 4.6 mph W7.4 kmh W 13.6 mph21.9 kmh 29.95 in1014.2 mb 0.00 in0.0 mm 0.00 in0.0 mm 0.14 in3.6 mm
02:15 PM 66.2°F19.0°C 59.1°F15.1°C 78% 3.2 mph W5.1 kmh W 11.5 mph18.5 kmh 29.95 in1014.2 mb 0.00 in0.0 mm 0.00 in0.0 mm 0.14 in3.6 mm
02:30 PM 66.0°F18.9°C 59.3°F15.2°C 79% 3.5 mph WNW5.6 kmh WNW 11.5 mph18.5 kmh 29.95 in1014.2 mb 0.00 in0.0 mm 0.00 in0.0 mm 0.14 in3.6 mm
02:45 PM 66.4°F19.1°C 59.7°F15.4°C 79% 4.0 mph WNW6.4 kmh WNW 10.0 mph16.1 kmh 29.95 in1014.2 mb 0.00 in0.0 mm 0.00 in0.0 mm 0.14 in3.6 mm
03:00 PM 67.3°F19.6°C 60.2°F15.7°C 78% 2.9 mph W4.7 kmh W 7.9 mph12.7 kmh 29.95 in1014.2 mb 0.00 in0.0 mm 0.00 in0.0 mm 0.14 in3.6 mm
03:15 PM 67.1°F19.5°C 59.6°F15.3°C 77% 3.0 mph NW4.8 kmh NW 10.4 mph16.7 kmh 29.95 in1014.2 mb 0.00 in0.0 mm 0.00 in0.0 mm 0.14 in3.6 mm
03:30 PM 66.9°F19.4°C 59.5°F15.3°C 77% 2.9 mph W4.7 kmh W 8.9 mph14.3 kmh 29.95 in1014.2 mb 0.00 in0.0 mm 0.00 in0.0 mm 0.14 in3.6 mm
03:45 PM 66.6°F19.2°C 58.8°F14.9°C 76% 4.2 mph WNW6.8 kmh WNW 11.8 mph19.0 kmh 29.95 in1014.2 mb 0.00 in0.0 mm 0.00 in0.0 mm 0.14 in3.6 mm
04:00 PM 66.2°F19.0°C 58.8°F14.9°C 77% 3.2 mph W5.1 kmh W 7.5 mph12.1 kmh 29.98 in1015.2 mb 0.00 in0.0 mm 0.00 in0.0 mm 0.14 in3.6 mm
04:15 PM 66.2°F19.0°C 58.8°F14.9°C 77% 3.0 mph W4.8 kmh W 10.4 mph16.7 kmh 29.98 in1015.2 mb 0.00 in0.0 mm 0.00 in0.0 mm 0.14 in3.6 mm
04:30 PM 66.0°F18.9°C 59.0°F15.0°C 78% 2.2 mph W3.5 kmh W 7.5 mph12.1 kmh 29.98 in1015.2 mb 0.00 in0.0 mm 0.00 in0.0 mm 0.14 in3.6 mm
04:45 PM 65.7°F18.7°C 59.0°F15.0°C 79% 1.4 mph WNW2.3 kmh WNW 4.7 mph7.6 kmh 29.98 in1015.2 mb 0.00 in0.0 mm 0.00 in0.0 mm 0.14 in3.6 mm
05:00 PM 65.3°F18.5°C 58.6°F14.8°C 79% 1.8 mph W2.9 kmh W 8.6 mph13.8 kmh 29.98 in1015.2 mb 0.00 in0.0 mm 0.00 in0.0 mm 0.14 in3.6 mm
05:15 PM 64.9°F18.3°C 58.6°F14.8°C 80% 0.9 mph W1.4 kmh W 6.4 mph10.3 kmh 29.98 in1015.2 mb 0.00 in0.0 mm 0.00 in0.0 mm 0.14 in3.6 mm
05:30 PM 64.6°F18.1°C 58.3°F14.6°C 80% 0.6 mph W1.0 kmh W 4.7 mph7.6 kmh 29.98 in1015.2 mb 0.00 in0.0 mm 0.00 in0.0 mm 0.14 in3.6 mm
05:45 PM 64.4°F18.0°C 58.4°F14.7°C 81% 1.6 mph WSW2.6 kmh WSW 8.6 mph13.8 kmh 29.98 in1015.2 mb 0.00 in0.0 mm 0.00 in0.0 mm 0.14 in3.6 mm
06:00 PM 64.0°F17.8°C 58.4°F14.7°C 82% 0.5 mph WSW0.8 kmh WSW 5.4 mph8.7 kmh 29.98 in1015.2 mb 0.00 in0.0 mm 0.00 in0.0 mm 0.14 in3.6 mm
06:15 PM 63.9°F17.7°C 58.6°F14.8°C 83% 0.7 mph W1.1 kmh W 5.0 mph8.0 kmh 29.98 in1015.2 mb 0.00 in0.0 mm 0.00 in0.0 mm 0.14 in3.6 mm
06:30 PM 63.5°F17.5°C 58.2°F14.6°C 83% 0.2 mph W0.3 kmh W 4.3 mph6.9 kmh 29.98 in1015.2 mb 0.00 in0.0 mm 0.00 in0.0 mm 0.14 in3.6 mm
06:45 PM 63.1°F17.3°C 58.2°F14.6°C 84% 0.4 mph WSW0.6 kmh WSW 3.6 mph5.8 kmh 29.98 in1015.2 mb 0.00 in0.0 mm 0.00 in0.0 mm 0.14 in3.6 mm
07:00 PM 62.8°F17.1°C 58.2°F14.6°C 85% 0.1 mph W0.2 kmh W 2.1 mph3.4 kmh 29.98 in1015.2 mb 0.00 in0.0 mm 0.00 in0.0 mm 0.14 in3.6 mm
07:15 PM 62.6°F17.0°C 58.0°F14.4°C 85% 0.1 mph W0.2 kmh W 1.8 mph2.9 kmh 29.95 in1014.2 mb 0.00 in0.0 mm 0.00 in0.0 mm 0.14 in3.6 mm
07:30 PM 62.2°F16.8°C 57.7°F14.3°C 85% Calm Calm -- 29.95 in1014.2 mb 0.00 in0.0 mm 0.00 in0.0 mm 0.14 in3.6 mm
07:45 PM 61.9°F16.6°C 57.6°F14.2°C 86% Calm Calm -- 29.95 in1014.2 mb 0.00 in0.0 mm 0.00 in0.0 mm 0.14 in3.6 mm
08:00 PM 61.7°F16.5°C 57.5°F14.2°C 86% Calm Calm -- 29.95 in1014.2 mb 0.00 in0.0 mm 0.00 in0.0 mm 0.14 in3.6 mm
08:15 PM 61.7°F16.5°C 57.8°F14.3°C 87% Calm Calm -- 29.98 in1015.2 mb 0.00 in0.0 mm 0.00 in0.0 mm 0.14 in3.6 mm
08:30 PM 61.5°F16.4°C 57.6°F14.2°C 87% Calm Calm 1.8 mph2.9 kmh 29.98 in1015.2 mb 0.00 in0.0 mm 0.00 in0.0 mm 0.14 in3.6 mm
08:45 PM 61.3°F16.3°C 57.4°F14.1°C 87% Calm Calm -- 29.98 in1015.2 mb 0.00 in0.0 mm 0.00 in0.0 mm 0.14 in3.6 mm
09:00 PM 61.3°F16.3°C 57.4°F14.1°C 87% Calm Calm -- 29.98 in1015.2 mb 0.00 in0.0 mm 0.00 in0.0 mm 0.14 in3.6 mm
09:15 PM 61.2°F16.2°C 57.3°F14.1°C 87% Calm Calm -- 29.98 in1015.2 mb 0.00 in0.0 mm 0.00 in0.0 mm 0.14 in3.6 mm
09:30 PM 61.0°F16.1°C 57.4°F14.1°C 88% Calm Calm -- 29.98 in1015.2 mb 0.00 in0.0 mm 0.00 in0.0 mm 0.14 in3.6 mm
09:45 PM 61.0°F16.1°C 57.4°F14.1°C 88% 0.1 mph S0.2 kmh S 2.5 mph4.0 kmh 29.98 in1015.2 mb 0.00 in0.0 mm 0.00 in0.0 mm 0.14 in3.6 mm
10:00 PM 60.8°F16.0°C 57.5°F14.2°C 89% 0.3 mph S0.5 kmh S 3.9 mph6.3 kmh 29.98 in1015.2 mb 0.00 in0.0 mm 0.00 in0.0 mm 0.14 in3.6 mm
10:15 PM 60.8°F16.0°C 57.5°F14.2°C 89% 0.1 mph S0.2 kmh S 5.4 mph8.7 kmh 29.98 in1015.2 mb 0.00 in0.0 mm 0.00 in0.0 mm 0.14 in3.6 mm
10:30 PM 61.0°F16.1°C 57.7°F14.3°C 89% 0.6 mph S1.0 kmh S 4.3 mph6.9 kmh 30.01 in1016.3 mb 0.00 in0.0 mm 0.00 in0.0 mm 0.14 in3.6 mm
10:45 PM 60.8°F16.0°C 57.5°F14.2°C 89% Calm Calm -- 30.01 in1016.3 mb 0.00 in0.0 mm 0.00 in0.0 mm 0.14 in3.6 mm
11:00 PM 60.4°F15.8°C 57.2°F14.0°C 89% Calm Calm -- 30.01 in1016.3 mb 0.00 in0.0 mm 0.00 in0.0 mm 0.15 in3.8 mm
11:15 PM 59.9°F15.5°C 56.6°F13.7°C 89% Calm Calm -- 30.01 in1016.3 mb 0.00 in0.0 mm 0.00 in0.0 mm 0.15 in3.8 mm
11:30 PM 59.7°F15.4°C 56.5°F13.6°C 89% Calm Calm -- 30.01 in1016.3 mb 0.00 in0.0 mm 0.00 in0.0 mm 0.15 in3.8 mm
11:45 PM 59.5°F15.3°C 56.3°F13.5°C 89% Calm Calm -- 30.01 in1016.3 mb 0.00 in0.0 mm 0.00 in0.0 mm 0.15 in3.8 mm